Time;durP1;ratioP1;P1;durP2;ratioP2;P2;SDS_P1;SDS_P2;PMS_P1;PMS_P2;Temp;Humidity;BMP_temperature;BMP_pressure;BME280_temperature;BME280_humidity;BME280_pressure;Samples;Min_cycle;Max_cycle;Signal;HPM_P1;HPM_P2
2024/01/21 00:00:13;;;;;;;12.10;5.50;;;;;;;-2.12;65.71;100195.66;79686;1295;3018827;-69
2024/01/21 00:02:40;;;;;;;11.60;4.90;;;;;;;-2.13;65.57;100199.42;79773;1294;3011466;-72
2024/01/21 00:05:08;;;;;;;8.40;5.10;;;;;;;-2.07;65.79;100201.16;78429;1296;3053847;-73
2024/01/21 00:07:35;;;;;;;12.60;5.50;;;;;;;-2.05;65.58;100200.98;79665;1293;3013307;-71
2024/01/21 00:10:01;;;;;;;10.20;5.10;;;;;;;-2.11;65.34;100199.95;79723;1292;3011863;-71
2024/01/21 00:12:29;;;;;;;11.40;4.70;;;;;;;-2.10;65.36;100201.33;78439;1292;3025902;-70
2024/01/21 00:14:56;;;;;;;9.50;4.60;;;;;;;-2.18;65.42;100205.95;79690;1293;3013357;-71
2024/01/21 00:17:22;;;;;;;10.10;4.90;;;;;;;-2.13;65.71;100212.98;79705;1293;3011927;-70
2024/01/21 00:19:51;;;;;;;9.80;4.40;;;;;;;-2.05;65.82;100212.83;78535;1292;3026528;-72
2024/01/21 00:22:17;;;;;;;8.10;4.10;;;;;;;-2.00;65.74;100210.79;79805;1292;3013044;-68
2024/01/21 00:24:44;;;;;;;8.00;4.20;;;;;;;-2.01;65.56;100207.17;79641;1296;3013714;-69
2024/01/21 00:27:12;;;;;;;7.50;3.80;;;;;;;-1.96;65.63;100205.99;78460;1295;3070180;-69
2024/01/21 00:29:38;;;;;;;8.50;4.20;;;;;;;-1.90;65.34;100208.23;79774;1294;3013364;-70
2024/01/21 00:32:05;;;;;;;6.20;3.90;;;;;;;-1.88;65.39;100207.73;79697;1293;3011684;-70
2024/01/21 00:34:33;;;;;;;11.30;4.20;;;;;;;-1.83;65.29;100198.64;78310;1294;3028456;-68
2024/01/21 00:36:59;;;;;;;7.80;4.00;;;;;;;-1.80;65.32;100200.88;79659;1296;3014352;-66
2024/01/21 00:39:26;;;;;;;9.10;3.80;;;;;;;-1.71;65.85;100200.88;79719;1293;3011807;-67
2024/01/21 00:41:55;;;;;;;5.80;3.40;;;;;;;-1.68;65.12;100192.48;78474;1294;3027967;-64
2024/01/21 00:44:21;;;;;;;8.00;3.90;;;;;;;-1.81;65.01;100192.10;79691;1294;3013725;-70
2024/01/21 00:46:50;;;;;;;9.10;4.60;;;;;;;-1.87;65.22;100194.69;79673;1294;3012952;-71
2024/01/21 00:49:18;;;;;;;8.10;3.70;;;;;;;-1.90;65.77;100189.69;78495;1297;3052990;-65
2024/01/21 00:51:45;;;;;;;9.20;4.30;;;;;;;-1.88;65.99;100190.55;79686;1293;3021101;-70
2024/01/21 00:54:11;;;;;;;8.60;4.60;;;;;;;-1.88;66.26;100192.77;79681;1296;3011723;-69
2024/01/21 00:56:39;;;;;;;10.00;4.70;;;;;;;-1.90;65.83;100192.27;78511;1296;3026181;-69
2024/01/21 00:59:05;;;;;;;13.90;5.30;;;;;;;-1.91;66.36;100192.95;79768;1293;3013267;-75
2024/01/21 01:01:37;;;;;;;11.00;5.40;;;;;;;-1.95;67.17;100190.54;79716;1293;3011620;-69
2024/01/21 01:04:05;;;;;;;12.60;5.20;;;;;;;-1.94;67.17;100185.39;78475;1296;3052303;-69
2024/01/21 01:06:35;;;;;;;11.70;6.10;;;;;;;-2.01;67.11;100187.78;79761;1294;3012951;-71
2024/01/21 01:09:01;;;;;;;12.90;6.70;;;;;;;-2.02;67.19;100190.86;79707;1293;3011141;-66
2024/01/21 01:11:30;;;;;;;12.00;6.00;;;;;;;-2.09;66.77;100192.21;78568;1296;3068345;-67
2024/01/21 01:13:57;;;;;;;14.00;8.70;;;;;;;-2.18;66.93;100198.38;79800;1292;3013582;-67
2024/01/21 01:16:23;;;;;;;25.90;11.90;;;;;;;-2.14;67.27;100204.23;79715;1294;3011668;-69
2024/01/21 01:18:51;;;;;;;25.10;12.70;;;;;;;-2.20;67.23;100205.06;78473;1293;3051924;-69
2024/01/21 01:21:18;;;;;;;19.30;9.30;;;;;;;-2.17;67.73;100205.41;79736;1294;3013957;-70
2024/01/21 01:23:44;;;;;;;23.70;11.10;;;;;;;-2.14;67.44;100204.92;79740;1296;3012151;-67
2024/01/21 01:26:12;;;;;;;20.00;9.40;;;;;;;-2.23;67.34;100205.23;78514;1294;3026302;-66
2024/01/21 01:28:39;;;;;;;23.20;12.10;;;;;;;-2.30;67.40;100201.42;79766;1293;3020711;-69
2024/01/21 01:31:05;;;;;;;21.70;11.10;;;;;;;-2.50;67.97;100197.92;79732;1296;3011714;-66
2024/01/21 01:33:33;;;;;;;19.20;9.80;;;;;;;-2.50;68.59;100200.48;78533;1293;3025930;-67
2024/01/21 01:35:59;;;;;;;17.50;9.00;;;;;;;-2.50;68.85;100201.86;79766;1296;3019269;-65
2024/01/21 01:38:26;;;;;;;17.50;9.10;;;;;;;-2.56;69.01;100205.95;79616;1296;3013491;-66
2024/01/21 01:40:54;;;;;;;14.60;7.10;;;;;;;-2.65;68.93;100208.14;78367;1296;3026345;-70
2024/01/21 01:43:21;;;;;;;14.50;7.30;;;;;;;-2.69;69.30;100204.67;79765;1294;3013515;-67
2024/01/21 01:45:48;;;;;;;15.30;7.70;;;;;;;-2.75;69.65;100200.88;79568;1294;3013967;-68
2024/01/21 01:48:16;;;;;;;12.80;7.40;;;;;;;-2.73;69.64;100201.58;78548;1294;3052518;-68
2024/01/21 01:50:43;;;;;;;13.90;7.80;;;;;;;-2.72;69.74;100198.16;79701;1296;3018574;-72
2024/01/21 01:53:09;;;;;;;14.40;7.40;;;;;;;-2.78;69.98;100200.86;79578;1296;3011599;-68
2024/01/21 01:57:01;;;;;;;12.80;7.60;;;;;;;-2.62;69.52;100198.89;80196;1299;3011930;-68
2024/01/21 01:59:28;;;;;;;17.10;8.60;;;;;;;-2.73;69.51;100202.61;79055;1302;3012092;-68
2024/01/21 02:01:57;;;;;;;18.50;9.20;;;;;;;-2.81;69.80;100198.45;79165;1302;3011969;-68
2024/01/21 02:04:24;;;;;;;23.20;10.20;;;;;;;-2.82;70.27;100201.70;77998;1304;3051803;-68
2024/01/21 02:06:52;;;;;;;21.50;11.50;;;;;;;-2.86;70.26;100200.83;79154;1301;3013468;-72
2024/01/21 02:09:18;;;;;;;22.00;11.20;;;;;;;-2.74;69.94;100199.34;78925;1302;3011561;-66
2024/01/21 02:11:46;;;;;;;16.60;9.30;;;;;;;-2.80;70.14;100203.95;78079;1303;3026709;-70
2024/01/21 02:14:13;;;;;;;25.80;11.00;;;;;;;-2.82;70.39;100208.73;79277;1303;3018578;-70
2024/01/21 02:16:39;;;;;;;22.40;11.30;;;;;;;-2.78;70.35;100210.30;79364;1299;3011647;-64
2024/01/21 02:19:11;;;;;;;26.30;11.80;;;;;;;-2.88;70.87;100217.11;78176;1301;3025966;-66
2024/01/21 02:21:37;;;;;;;25.70;12.00;;;;;;;-2.93;71.30;100224.27;79399;1301;3011969;-72
2024/01/21 02:24:05;;;;;;;26.10;10.80;;;;;;;-2.90;71.39;100220.86;78152;1301;3026652;-67
2024/01/21 02:26:32;;;;;;;25.50;11.70;;;;;;;-2.86;71.59;100223.27;79381;1298;3013044;-67
2024/01/21 02:28:58;;;;;;;23.50;10.90;;;;;;;-2.90;71.64;100233.19;79370;1297;3011749;-70
2024/01/21 02:31:26;;;;;;;26.40;11.10;;;;;;;-2.91;71.79;100236.61;78179;1298;3026298;-69
2024/01/21 02:33:52;;;;;;;21.30;10.90;;;;;;;-2.95;72.21;100243.29;79391;1301;3013646;-68
2024/01/21 02:36:19;;;;;;;23.40;10.50;;;;;;;-3.00;72.54;100251.65;79397;1300;3013362;-69
2024/01/21 02:38:47;;;;;;;19.50;8.70;;;;;;;-2.96;72.30;100259.56;78173;1296;3026141;-66
2024/01/21 02:41:13;;;;;;;15.80;7.90;;;;;;;-3.01;72.35;100259.36;79322;1301;3013784;-69
2024/01/21 02:43:40;;;;;;;23.80;9.10;;;;;;;-3.01;72.60;100263.30;79416;1298;3011565;-65
2024/01/21 02:46:08;;;;;;;21.90;8.80;;;;;;;-3.09;73.53;100260.15;78244;1298;3025780;-70
2024/01/21 02:48:34;;;;;;;21.00;9.40;;;;;;;-3.02;73.11;100256.26;79398;1300;3013048;-67
2024/01/21 02:51:01;;;;;;;24.00;10.00;;;;;;;-2.94;72.87;100258.89;79470;1298;3013644;-69
2024/01/21 02:53:30;;;;;;;19.80;9.00;;;;;;;-2.96;72.91;100261.63;78181;1298;3026278;-63
2024/01/21 02:55:57;;;;;;;18.60;7.40;;;;;;;-2.95;73.13;100263.68;79379;1300;3011658;-68
2024/01/21 02:58:23;;;;;;;17.60;8.40;;;;;;;-2.85;73.00;100258.95;79408;1296;3012231;-71
2024/01/21 03:00:51;;;;;;;17.30;7.50;;;;;;;-2.93;72.90;100264.55;78192;1299;3049664;-68
2024/01/21 03:03:17;;;;;;;14.40;7.00;;;;;;;-2.98;73.56;100264.00;79346;1300;3013392;-66
2024/01/21 03:05:44;;;;;;;15.20;7.20;;;;;;;-3.03;73.47;100261.41;79446;1295;3011460;-68
2024/01/21 03:08:12;;;;;;;16.90;7.80;;;;;;;-3.06;73.86;100261.55;78422;1295;3026566;-65
2024/01/21 03:10:38;;;;;;;16.40;6.70;;;;;;;-3.06;74.23;100263.09;79555;1295;3019084;-70
2024/01/21 03:13:05;;;;;;;15.50;7.30;;;;;;;-3.06;74.27;100267.20;79609;1298;3011321;-67
2024/01/21 03:15:33;;;;;;;16.60;7.10;;;;;;;-3.01;74.28;100265.02;78346;1298;3025826;-72
2024/01/21 03:17:59;;;;;;;14.30;6.40;;;;;;;-2.99;74.04;100267.77;79606;1298;3018769;-69
2024/01/21 03:20:26;;;;;;;17.50;7.40;;;;;;;-2.91;73.64;100265.78;79505;1298;3011750;-69
2024/01/21 03:22:54;;;;;;;15.80;7.80;;;;;;;-2.95;73.94;100264.73;78312;1295;3026285;-68
2024/01/21 03:25:20;;;;;;;18.70;8.90;;;;;;;-2.83;73.64;100263.77;79786;1298;3013203;-66
2024/01/21 03:27:46;;;;;;;26.40;10.70;;;;;;;-2.95;74.08;100265.90;79612;1295;3011482;-67
2024/01/21 03:30:14;;;;;;;28.50;11.80;;;;;;;-3.06;75.07;100264.46;78358;1298;3025954;-69
2024/01/21 03:32:43;;;;;;;27.30;11.90;;;;;;;-3.09;75.53;100263.23;79599;1298;3013369;-65
2024/01/21 03:35:09;;;;;;;22.70;9.90;;;;;;;-3.06;75.33;100266.52;79557;1298;3011834;-67
2024/01/21 03:37:38;;;;;;;22.70;10.20;;;;;;;-2.97;75.28;100265.89;78449;1298;3050759;-72
2024/01/21 03:40:06;;;;;;;15.40;8.30;;;;;;;-3.04;75.39;100271.85;79592;1294;3013130;-69
2024/01/21 03:42:37;;;;;;;17.80;8.10;;;;;;;-3.14;75.71;100267.83;79040;1294;3011573;-69
2024/01/21 03:45:05;;;;;;;20.40;7.80;;;;;;;-3.14;75.78;100271.08;79672;1294;3012689;-66
2024/01/21 03:47:34;;;;;;;18.60;7.60;;;;;;;-3.11;75.72;100268.71;78196;1298;3028956;-66
2024/01/21 03:50:01;;;;;;;23.30;9.40;;;;;;;-3.18;76.14;100263.86;79621;1298;3013476;-71
2024/01/21 03:52:28;;;;;;;14.30;7.90;;;;;;;-3.19;76.40;100258.36;79583;1296;3011732;-71
2024/01/21 03:54:56;;;;;;;14.20;7.00;;;;;;;-3.12;75.97;100256.70;78391;1298;3026560;-67
2024/01/21 03:57:22;;;;;;;11.60;6.40;;;;;;;-3.17;75.76;100259.23;79624;1295;3013550;-68
2024/01/21 03:59:49;;;;;;;15.60;6.60;;;;;;;-3.13;75.85;100254.12;79592;1298;3011649;-67
2024/01/21 04:02:17;;;;;;;13.10;7.10;;;;;;;-3.13;76.01;100254.80;78367;1295;3027686;-65
2024/01/21 04:04:46;;;;;;;11.10;6.40;;;;;;;-3.02;75.81;100255.06;79699;1298;3013193;-65
2024/01/21 04:07:15;;;;;;;15.20;6.70;;;;;;;-2.97;75.72;100259.73;79041;1298;3012196;-64
2024/01/21 04:09:42;;;;;;;13.50;5.70;;;;;;;-2.92;75.63;100266.80;79631;1298;3013605;-68
2024/01/21 04:12:09;;;;;;;12.70;6.70;;;;;;;-2.87;75.17;100266.14;79349;1294;3013550;-69
2024/01/21 04:14:39;;;;;;;11.80;5.60;;;;;;;-2.92;75.55;100266.79;78222;1298;3049015;-64
2024/01/21 04:17:05;;;;;;;9.20;5.50;;;;;;;-2.91;74.82;100262.01;79924;1295;3013658;-71
2024/01/21 04:19:32;;;;;;;13.60;6.00;;;;;;;-2.83;75.29;100259.31;79535;1296;3011881;-66
2024/01/21 04:22:00;;;;;;;12.60;6.40;;;;;;;-2.70;75.09;100261.79;78441;1295;3051377;-69
2024/01/21 04:24:27;;;;;;;12.40;6.90;;;;;;;-2.64;74.94;100260.62;79769;1298;3018761;-67
2024/01/21 04:26:53;;;;;;;12.50;5.50;;;;;;;-2.64;74.42;100263.02;79592;1300;3011723;-66
2024/01/21 04:29:21;;;;;;;12.10;5.70;;;;;;;-2.64;73.84;100269.20;78296;1295;3025710;-69
2024/01/21 04:31:47;;;;;;;16.60;6.60;;;;;;;-2.64;74.24;100268.33;79522;1299;3018468;-67
2024/01/21 04:34:14;;;;;;;15.80;6.90;;;;;;;-2.65;74.52;100271.24;79447;1300;3013953;-63
2024/01/21 04:36:43;;;;;;;15.80;7.10;;;;;;;-2.63;74.73;100271.10;78212;1296;3026669;-70
2024/01/21 04:39:10;;;;;;;12.60;6.80;;;;;;;-2.81;75.01;100279.39;79613;1295;3014654;-72
2024/01/21 04:41:36;;;;;;;14.70;6.80;;;;;;;-2.86;75.74;100283.98;79473;1295;3011619;-72
2024/01/21 04:44:04;;;;;;;15.60;7.20;;;;;;;-2.80;75.53;100280.59;78450;1295;3048823;-69
2024/01/21 04:46:31;;;;;;;12.30;5.90;;;;;;;-2.73;75.61;100276.69;79547;1295;3013186;-71
2024/01/21 04:48:58;;;;;;;12.80;5.60;;;;;;;-2.74;75.24;100272.74;79542;1295;3011519;-64
2024/01/21 04:51:25;;;;;;;10.80;6.20;;;;;;;-2.71;74.86;100282.70;78331;1296;3026079;-69
2024/01/21 04:53:52;;;;;;;9.90;6.20;;;;;;;-2.78;74.85;100290.21;79576;1300;3013377;-71
2024/01/21 04:56:18;;;;;;;12.40;6.60;;;;;;;-2.75;74.85;100280.11;79578;1295;3013520;-69
2024/01/21 04:58:46;;;;;;;9.80;5.10;;;;;;;-2.77;75.05;100279.76;78305;1295;3025896;-66
2024/01/21 05:01:13;;;;;;;7.60;4.90;;;;;;;-2.70;74.59;100293.52;79586;1298;3011574;-66
2024/01/21 05:03:39;;;;;;;13.10;5.30;;;;;;;-2.76;74.48;100303.10;79524;1300;3012557;-70
2024/01/21 05:06:07;;;;;;;10.90;6.20;;;;;;;-2.62;74.50;100306.62;78321;1296;3025514;-65
2024/01/21 05:08:34;;;;;;;16.10;6.20;;;;;;;-2.70;74.39;100322.68;79625;1295;3012330;-72
2024/01/21 05:11:01;;;;;;;14.00;6.00;;;;;;;-2.99;75.48;100329.14;79684;1296;3013468;-73
2024/01/21 05:13:28;;;;;;;10.70;5.70;;;;;;;-3.15;76.87;100329.52;78244;1301;3028491;-65
2024/01/21 05:15:55;;;;;;;13.40;6.20;;;;;;;-3.18;77.50;100325.73;79508;1295;3019083;-65
2024/01/21 05:18:23;;;;;;;13.80;6.50;;;;;;;-3.02;77.42;100313.69;79498;1295;3013138;-65
2024/01/21 05:20:51;;;;;;;11.90;6.50;;;;;;;-3.21;77.98;100332.20;78292;1301;3051896;-69
2024/01/21 05:23:17;;;;;;;11.70;6.80;;;;;;;-3.27;78.13;100335.39;79642;1295;3018970;-68
2024/01/21 05:25:49;;;;;;;13.50;6.90;;;;;;;-3.26;78.34;100329.08;79504;1299;3011605;-69
2024/01/21 05:28:17;;;;;;;10.80;5.70;;;;;;;-3.12;78.18;100325.77;78333;1301;3048005;-67
2024/01/21 05:30:44;;;;;;;13.30;6.90;;;;;;;-3.22;78.24;100333.39;79525;1295;3018343;-67
2024/01/21 05:33:10;;;;;;;10.40;6.00;;;;;;;-3.20;78.89;100338.04;79608;1295;3011714;-68
2024/01/21 05:35:38;;;;;;;10.60;6.00;;;;;;;-3.41;79.12;100340.75;78408;1295;3028145;-70
2024/01/21 05:38:05;;;;;;;11.50;5.70;;;;;;;-3.32;78.88;100336.21;79650;1295;3018576;-70
2024/01/21 05:40:32;;;;;;;13.10;5.90;;;;;;;-3.25;79.24;100337.14;79705;1299;3011872;-71
2024/01/21 05:43:01;;;;;;;10.20;5.00;;;;;;;-3.15;78.95;100343.92;78284;1298;3048827;-71
2024/01/21 05:45:27;;;;;;;11.40;5.60;;;;;;;-3.01;78.38;100337.69;79598;1298;3012941;-68
2024/01/21 05:47:54;;;;;;;12.70;6.00;;;;;;;-2.98;78.18;100342.01;79511;1300;3011613;-70
2024/01/21 05:50:22;;;;;;;14.60;6.60;;;;;;;-3.04;78.31;100349.67;78353;1295;3025939;-68
2024/01/21 05:52:48;;;;;;;13.70;5.40;;;;;;;-3.09;78.59;100353.91;79585;1295;3013581;-71
2024/01/21 05:55:15;;;;;;;11.10;6.10;;;;;;;-3.13;79.02;100362.44;79546;1296;3011464;-68
2024/01/21 05:57:44;;;;;;;14.80;6.50;;;;;;;-2.92;78.77;100351.33;78362;1295;3026443;-68
2024/01/21 06:00:11;;;;;;;10.40;6.00;;;;;;;-2.84;78.40;100355.33;79786;1294;3013008;-71
2024/01/21 06:02:42;;;;;;;13.40;6.50;;;;;;;-2.79;78.19;100353.30;78652;1294;3053853;-70
2024/01/21 06:05:08;;;;;;;11.90;6.40;;;;;;;-2.74;78.30;100357.29;79942;1294;3018746;-70
2024/01/21 06:07:35;;;;;;;12.40;6.40;;;;;;;-2.83;78.11;100353.09;79826;1290;3011529;-67
2024/01/21 06:10:03;;;;;;;10.80;6.10;;;;;;;-2.85;78.11;100354.46;78603;1290;3026093;-69
2024/01/21 06:12:30;;;;;;;12.40;6.20;;;;;;;-2.81;77.89;100354.50;79913;1292;3013003;-71
2024/01/21 06:14:56;;;;;;;12.00;5.40;;;;;;;-2.77;77.61;100352.63;79746;1292;3011655;-71
2024/01/21 06:17:24;;;;;;;11.60;6.10;;;;;;;-2.72;77.09;100352.68;78651;1294;3052411;-70
2024/01/21 06:19:51;;;;;;;13.60;6.20;;;;;;;-2.56;76.62;100350.23;79903;1292;3013550;-69
2024/01/21 06:22:17;;;;;;;13.20;6.80;;;;;;;-2.44;76.31;100347.73;79843;1294;3011695;-66
2024/01/21 06:24:45;;;;;;;14.10;6.30;;;;;;;-2.46;75.79;100347.72;78730;1291;3026709;-66
2024/01/21 06:27:12;;;;;;;12.20;5.80;;;;;;;-2.38;75.72;100356.01;79940;1292;3013568;-69
2024/01/21 06:29:39;;;;;;;13.40;5.80;;;;;;;-2.58;75.57;100361.53;79755;1291;3011607;-67
2024/01/21 06:32:07;;;;;;;12.10;6.30;;;;;;;-2.46;75.43;100356.48;78628;1295;3027519;-69
2024/01/21 06:34:33;;;;;;;18.90;7.60;;;;;;;-2.54;75.70;100364.30;79778;1294;3012959;-68
2024/01/21 06:36:59;;;;;;;31.80;11.60;;;;;;;-2.57;75.67;100365.83;79787;1291;3011592;-71
2024/01/21 06:39:27;;;;;;;24.10;8.60;;;;;;;-2.59;75.43;100370.27;78558;1292;3028055;-71
2024/01/21 06:41:54;;;;;;;26.50;9.50;;;;;;;-2.52;75.20;100371.02;79843;1294;3013555;-68
2024/01/21 06:44:20;;;;;;;17.30;8.00;;;;;;;-2.54;75.84;100367.73;79730;1295;3011467;-69
2024/01/21 06:46:48;;;;;;;11.10;6.00;;;;;;;-2.48;75.74;100365.89;78613;1295;3025761;-70
2024/01/21 06:49:16;;;;;;;12.80;5.20;;;;;;;-2.49;76.16;100370.86;79954;1294;3013283;-67
2024/01/21 06:51:54;;;;;;;10.60;5.20;;;;;;;-2.64;76.44;100377.44;79799;1295;3011434;-68
2024/01/21 06:54:22;;;;;;;8.70;4.80;;;;;;;-2.38;76.36;100381.91;78654;1291;3055680;-71
2024/01/21 06:56:48;;;;;;;9.20;5.20;;;;;;;-2.41;76.06;100374.52;79915;1291;3013549;-70
2024/01/21 06:59:15;;;;;;;12.70;5.50;;;;;;;-2.43;76.57;100371.58;79788;1292;3011638;-66
2024/01/21 07:01:43;;;;;;;11.10;5.00;;;;;;;-2.39;76.07;100371.45;78686;1292;3026342;-68
2024/01/21 07:04:09;;;;;;;11.30;5.30;;;;;;;-2.51;76.75;100377.20;79834;1292;3015848;-70
2024/01/21 07:06:36;;;;;;;10.60;5.10;;;;;;;-2.66;77.39;100380.00;79863;1292;3011348;-71
2024/01/21 07:09:04;;;;;;;9.40;5.20;;;;;;;-2.60;77.50;100369.58;78595;1295;3028413;-70
2024/01/21 07:11:35;;;;;;;9.30;5.00;;;;;;;-2.54;77.06;100378.20;79913;1292;3013581;-67
2024/01/21 07:14:03;;;;;;;12.50;5.60;;;;;;;-2.65;77.46;100380.85;78533;1295;3049619;-71
2024/01/21 07:16:30;;;;;;;12.90;5.10;;;;;;;-2.67;77.77;100379.64;79814;1294;3013434;-65
2024/01/21 07:18:57;;;;;;;10.80;5.70;;;;;;;-2.52;77.49;100378.75;79727;1295;3013912;-69
2024/01/21 07:21:25;;;;;;;8.10;5.00;;;;;;;-2.41;77.22;100376.75;78647;1294;3051063;-66
2024/01/21 07:23:51;;;;;;;12.70;6.30;;;;;;;-2.49;76.49;100377.55;79892;1292;3013229;-70
2024/01/21 07:26:19;;;;;;;16.60;7.00;;;;;;;-2.41;76.79;100385.15;79813;1293;3011766;-72
2024/01/21 07:28:47;;;;;;;11.80;5.80;;;;;;;-2.70;76.24;100387.52;78577;1291;3048704;-73
2024/01/21 07:31:13;;;;;;;13.80;6.10;;;;;;;-2.72;76.29;100391.79;79849;1292;3013291;-70
2024/01/21 07:33:40;;;;;;;10.00;5.40;;;;;;;-2.84;76.83;100397.34;79838;1291;3011532;-71
2024/01/21 07:36:08;;;;;;;10.90;5.60;;;;;;;-2.82;76.88;100388.95;78461;1295;3028520;-69
2024/01/21 07:38:34;;;;;;;12.50;6.60;;;;;;;-2.73;76.33;100391.60;79830;1292;3018495;-66
2024/01/21 07:41:03;;;;;;;12.70;6.60;;;;;;;-2.81;76.20;100392.91;79803;1295;3011657;-71
2024/01/21 07:43:31;;;;;;;13.60;7.10;;;;;;;-2.88;76.35;100394.55;78527;1292;3050123;-68
2024/01/21 07:46:01;;;;;;;13.90;6.80;;;;;;;-2.94;76.35;100397.41;79894;1294;3013499;-67
2024/01/21 07:48:30;;;;;;;10.20;5.90;;;;;;;-3.04;76.75;100397.66;79355;1291;3011751;-72
2024/01/21 07:50:57;;;;;;;12.30;6.60;;;;;;;-3.05;76.69;100394.73;79648;1295;3013548;-71
2024/01/21 07:53:25;;;;;;;16.80;6.80;;;;;;;-3.07;76.67;100402.95;79624;1292;3013566;-70
2024/01/21 07:55:54;;;;;;;13.10;6.80;;;;;;;-2.74;76.37;100408.56;78393;1292;3047762;-69
2024/01/21 07:58:20;;;;;;;17.10;8.10;;;;;;;-2.71;76.19;100412.55;79767;1291;3013589;-67
2024/01/21 08:00:47;;;;;;;15.10;8.10;;;;;;;-2.85;76.74;100414.31;79760;1292;3011745;-70
2024/01/21 08:03:15;;;;;;;17.60;8.20;;;;;;;-2.68;76.64;100417.55;78642;1295;3051528;-69
2024/01/21 08:05:41;;;;;;;20.00;9.30;;;;;;;-2.78;76.51;100415.06;79948;1293;3013655;-68
2024/01/21 08:08:08;;;;;;;21.30;8.60;;;;;;;-2.68;76.42;100407.08;79821;1292;3011867;-73
2024/01/21 08:10:36;;;;;;;16.70;8.00;;;;;;;-2.85;76.66;100417.90;78600;1295;3026574;-69
2024/01/21 08:13:03;;;;;;;13.30;7.80;;;;;;;-2.91;77.25;100420.59;79707;1291;3019022;-66
2024/01/21 08:15:30;;;;;;;17.20;8.40;;;;;;;-2.93;77.27;100418.70;79741;1295;3011680;-65
2024/01/21 08:17:57;;;;;;;16.80;8.40;;;;;;;-2.83;77.07;100417.75;78531;1292;3028687;-64
2024/01/21 08:20:24;;;;;;;17.80;8.70;;;;;;;-2.68;76.73;100413.27;79864;1295;3013681;-68
2024/01/21 08:22:51;;;;;;;16.70;9.00;;;;;;;-2.66;76.61;100410.17;80268;1291;3013227;-66
2024/01/21 08:25:19;;;;;;;19.10;9.90;;;;;;;-2.65;76.89;100411.73;78658;1291;3026890;-65
2024/01/21 08:27:46;;;;;;;18.50;10.20;;;;;;;-2.49;76.42;100405.52;79847;1292;3013485;-67
2024/01/21 08:30:13;;;;;;;24.20;10.30;;;;;;;-2.52;76.08;100411.33;79621;1292;3011799;-67
2024/01/21 08:32:41;;;;;;;39.20;14.40;;;;;;;-2.67;76.62;100412.74;78619;1295;3051432;-69
2024/01/21 08:35:08;;;;;;;31.10;13.10;;;;;;;-2.61;76.43;100415.55;79921;1292;3018575;-65
2024/01/21 08:37:34;;;;;;;30.30;12.30;;;;;;;-2.62;76.64;100413.14;79781;1295;3012955;-67
2024/01/21 08:40:04;;;;;;;25.00;11.80;;;;;;;-2.58;76.74;100410.94;78647;1291;3047960;-68
2024/01/21 08:42:31;;;;;;;20.30;10.50;;;;;;;-2.50;76.78;100407.05;79780;1291;3013528;-65
2024/01/21 08:44:58;;;;;;;25.90;12.20;;;;;;;-2.31;76.23;100394.31;79874;1294;3013579;-70
2024/01/21 08:47:26;;;;;;;27.40;13.30;;;;;;;-2.25;76.43;100395.73;78677;1294;3051547;-68
2024/01/21 08:49:52;;;;;;;25.00;11.90;;;;;;;-2.29;77.00;100396.56;79946;1291;3013114;-70
2024/01/21 08:52:19;;;;;;;22.00;12.10;;;;;;;-2.18;77.02;100396.30;79846;1295;3011382;-69
2024/01/21 08:54:47;;;;;;;23.30;11.80;;;;;;;-2.04;76.79;100392.94;78639;1295;3026439;-66
2024/01/21 08:57:13;;;;;;;23.20;12.90;;;;;;;-2.03;76.85;100395.35;79900;1291;3012929;-70
2024/01/21 08:59:40;;;;;;;22.40;12.30;;;;;;;-2.36;76.81;100403.55;79836;1294;3011662;-71
2024/01/21 09:02:08;;;;;;;23.30;11.60;;;;;;;-2.25;77.12;100399.34;78646;1291;3026050;-67
2024/01/21 09:04:40;;;;;;;19.60;10.20;;;;;;;-2.19;77.16;100400.23;80287;1292;3014478;-65
2024/01/21 09:07:08;;;;;;;20.40;10.90;;;;;;;-2.20;77.18;100398.35;78734;1292;3055700;-71
2024/01/21 09:09:35;;;;;;;19.60;9.90;;;;;;;-2.11;77.05;100400.46;79834;1292;3012645;-71
2024/01/21 09:12:01;;;;;;;20.90;9.70;;;;;;;-2.19;77.41;100411.73;79717;1292;3011695;-70
2024/01/21 09:14:29;;;;;;;17.70;10.50;;;;;;;-2.26;77.38;100416.84;78572;1291;3028099;-67
2024/01/21 09:16:56;;;;;;;16.90;9.20;;;;;;;-2.38;78.28;100414.17;80335;1293;3012643;-65
2024/01/21 09:19:23;;;;;;;21.10;9.30;;;;;;;-2.45;78.60;100411.73;80031;1293;3013247;-69
2024/01/21 09:21:51;;;;;;;20.50;9.60;;;;;;;-2.37;78.99;100413.15;78639;1292;3057268;-74
2024/01/21 09:24:18;;;;;;;20.90;10.40;;;;;;;-2.38;79.48;100412.12;79883;1293;3012832;-72
2024/01/21 09:26:44;;;;;;;22.50;9.70;;;;;;;-2.35;79.81;100416.60;79935;1294;3011704;-72
2024/01/21 09:29:12;;;;;;;25.10;11.20;;;;;;;-2.21;79.43;100410.01;78627;1295;3026231;-69
2024/01/21 09:31:38;;;;;;;22.10;10.60;;;;;;;-2.14;79.25;100409.54;79965;1292;3020508;-67
2024/01/21 09:34:05;;;;;;;22.30;11.10;;;;;;;-2.09;79.32;100412.30;79784;1294;3011531;-69
2024/01/21 09:36:34;;;;;;;22.80;12.20;;;;;;;-2.06;78.78;100411.13;78702;1291;3028257;-69
2024/01/21 09:39:02;;;;;;;19.80;9.50;;;;;;;-2.11;78.95;100415.56;79811;1292;3011912;-72
2024/01/21 09:41:50;;;;;;;26.40;11.50;;;;;;;-2.14;79.10;100415.71;79284;1295;3011645;-72
2024/01/21 09:44:25;;;;;;;19.20;9.10;;;;;;;-2.12;78.97;100414.69;78523;1295;3050992;-69
2024/01/21 09:46:56;;;;;;;16.20;8.30;;;;;;;-2.08;79.02;100419.19;79252;1292;3013416;-70
2024/01/21 09:49:22;;;;;;;20.90;9.80;;;;;;;-2.29;79.51;100417.52;79817;1295;3014576;-67
2024/01/21 09:51:49;;;;;;;21.40;9.50;;;;;;;-2.30;81.09;100415.95;79831;1295;3011567;-70
2024/01/21 09:54:18;;;;;;;19.30;10.00;;;;;;;-2.35;81.60;100417.81;78562;1293;3051817;-68
2024/01/21 09:56:45;;;;;;;15.40;8.20;;;;;;;-2.21;82.06;100418.92;79935;1298;3012644;-67
2024/01/21 09:59:12;;;;;;;15.40;8.10;;;;;;;-1.59;80.74;100419.60;79864;1291;3011804;-67
2024/01/21 10:01:40;;;;;;;16.90;9.00;;;;;;;-0.92;78.19;100417.92;78601;1295;3049542;-66
2024/01/21 10:04:08;;;;;;;18.20;8.80;;;;;;;-0.75;77.23;100421.04;79957;1295;3012757;-74
2024/01/21 10:06:35;;;;;;;20.50;9.20;;;;;;;-1.19;78.01;100432.65;79828;1292;3011533;-73
2024/01/21 10:09:17;;;;;;;17.40;8.60;;;;;;;-1.41;78.59;100430.51;78581;1295;3051004;-72
2024/01/21 10:11:56;;;;;;;20.70;9.20;;;;;;;-1.38;79.16;100424.17;78548;1292;3056374;-72
2024/01/21 10:14:27;;;;;;;16.00;8.60;;;;;;;-1.67;80.07;100423.52;78656;1292;3048721;-71
2024/01/21 10:16:58;;;;;;;22.30;10.20;;;;;;;-1.60;81.27;100425.96;79776;1290;3011669;-67
2024/01/21 10:19:27;;;;;;;18.80;8.40;;;;;;;-1.72;82.50;100418.69;78631;1295;3048932;-70
2024/01/21 10:22:13;;;;;;;17.60;9.80;;;;;;;-1.75;82.78;100417.66;79950;1295;3013088;-64
2024/01/21 10:24:46;;;;;;;20.80;10.90;;;;;;;-1.62;83.28;100410.48;78631;1295;3068938;-70
2024/01/21 10:27:12;;;;;;;20.30;9.60;;;;;;;-1.65;84.01;100419.24;79853;1292;3011929;-70
2024/01/21 10:29:42;;;;;;;28.40;13.20;;;;;;;-1.65;83.30;100420.11;78625;1292;3028187;-66
2024/01/21 10:32:13;;;;;;;22.80;11.00;;;;;;;-1.73;84.71;100417.49;79887;1292;3011937;-66
2024/01/21 10:34:47;;;;;;;35.10;15.70;;;;;;;-1.72;84.64;100423.16;78449;1292;3054475;-65
2024/01/21 10:37:17;;;;;;;28.20;12.30;;;;;;;-1.61;83.93;100424.94;79323;1294;3013584;-68
2024/01/21 10:39:45;;;;;;;26.90;13.60;;;;;;;-1.56;83.85;100423.92;79846;1295;3013665;-68
2024/01/21 10:42:12;;;;;;;13.10;7.20;;;;;;;-1.51;83.95;100425.48;79812;1294;3011661;-69
2024/01/21 10:44:40;;;;;;;17.90;9.60;;;;;;;-1.07;83.00;100427.17;78631;1295;3068824;-67
2024/01/21 10:47:07;;;;;;;19.70;10.70;;;;;;;-0.52;81.15;100428.27;79763;1292;3013319;-69
2024/01/21 10:49:34;;;;;;;18.50;10.60;;;;;;;-0.17;79.66;100425.67;79786;1294;3011549;-68
2024/01/21 10:52:02;;;;;;;21.20;11.20;;;;;;;-0.04;78.99;100429.61;78478;1292;3025825;-70
2024/01/21 10:54:28;;;;;;;18.50;10.40;;;;;;;-0.21;78.99;100430.67;79953;1292;3018993;-65
2024/01/21 10:56:56;;;;;;;21.30;10.60;;;;;;;-0.46;79.05;100431.55;80094;1298;3011899;-67
2024/01/21 10:59:24;;;;;;;23.00;11.00;;;;;;;-0.81;80.16;100435.30;78720;1290;3025868;-66
2024/01/21 11:01:51;;;;;;;17.00;9.40;;;;;;;-1.03;81.66;100432.17;79972;1292;3013550;-67